sensor_id;sensor_type;location;lat;lon;timestamp;P1;durP1;ratioP1;P2;durP2;ratioP2
10511;SDS011;5304;48.604;2.096;2022-10-16T00:01:49;1.80;;;1.60;;
10511;SDS011;5304;48.604;2.096;2022-10-16T00:04:33;2.00;;;1.60;;
10511;SDS011;5304;48.604;2.096;2022-10-16T00:07:18;2.17;;;1.60;;
10511;SDS011;5304;48.604;2.096;2022-10-16T00:10:02;1.50;;;1.40;;
10511;SDS011;5304;48.604;2.096;2022-10-16T00:12:47;1.50;;;1.40;;
10511;SDS011;5304;48.604;2.096;2022-10-16T00:15:33;1.63;;;1.53;;
10511;SDS011;5304;48.604;2.096;2022-10-16T00:18:19;3.40;;;1.47;;
10511;SDS011;5304;48.604;2.096;2022-10-16T00:21:06;1.70;;;1.60;;
10511;SDS011;5304;48.604;2.096;2022-10-16T00:23:53;2.30;;;1.70;;
10511;SDS011;5304;48.604;2.096;2022-10-16T00:26:39;1.40;;;1.30;;
10511;SDS011;5304;48.604;2.096;2022-10-16T00:29:24;2.20;;;1.30;;
10511;SDS011;5304;48.604;2.096;2022-10-16T00:32:08;1.63;;;1.53;;
10511;SDS011;5304;48.604;2.096;2022-10-16T00:34:53;3.53;;;1.33;;
10511;SDS011;5304;48.604;2.096;2022-10-16T00:37:38;1.57;;;1.47;;
10511;SDS011;5304;48.604;2.096;2022-10-16T00:40:22;3.13;;;1.40;;
10511;SDS011;5304;48.604;2.096;2022-10-16T00:43:14;2.60;;;1.30;;
10511;SDS011;5304;48.604;2.096;2022-10-16T00:46:26;2.57;;;1.40;;
10511;SDS011;5304;48.604;2.096;2022-10-16T00:49:18;1.37;;;1.23;;
10511;SDS011;5304;48.604;2.096;2022-10-16T00:52:04;1.70;;;1.27;;
10511;SDS011;5304;48.604;2.096;2022-10-16T00:54:49;1.93;;;1.53;;
10511;SDS011;5304;48.604;2.096;2022-10-16T00:57:36;3.13;;;1.50;;
10511;SDS011;5304;48.604;2.096;2022-10-16T01:00:22;1.53;;;1.33;;
10511;SDS011;5304;48.604;2.096;2022-10-16T01:06:14;3.70;;;1.50;;
10511;SDS011;5304;48.604;2.096;2022-10-16T01:09:22;3.87;;;1.60;;
10511;SDS011;5304;48.604;2.096;2022-10-16T01:15:26;1.77;;;1.27;;
10511;SDS011;5304;48.604;2.096;2022-10-16T01:18:37;2.23;;;1.37;;
10511;SDS011;5304;48.604;2.096;2022-10-16T01:21:28;3.33;;;1.00;;
10511;SDS011;5304;48.604;2.096;2022-10-16T01:33:11;2.53;;;1.43;;
10511;SDS011;5304;48.604;2.096;2022-10-16T01:36:25;3.10;;;1.20;;
10511;SDS011;5304;48.604;2.096;2022-10-16T01:39:22;1.70;;;1.10;;
10511;SDS011;5304;48.604;2.096;2022-10-16T01:42:14;5.80;;;1.10;;
10511;SDS011;5304;48.604;2.096;2022-10-16T01:45:07;1.60;;;1.10;;
10511;SDS011;5304;48.604;2.096;2022-10-16T01:47:55;3.13;;;1.10;;
10511;SDS011;5304;48.604;2.096;2022-10-16T01:50:41;5.03;;;1.30;;
10511;SDS011;5304;48.604;2.096;2022-10-16T01:53:27;1.87;;;1.20;;
10511;SDS011;5304;48.604;2.096;2022-10-16T01:56:12;1.00;;;1.00;;
10511;SDS011;5304;48.604;2.096;2022-10-16T01:59:00;0.93;;;0.90;;
10511;SDS011;5304;48.604;2.096;2022-10-16T02:01:52;2.10;;;1.00;;
10511;SDS011;5304;48.604;2.096;2022-10-16T02:04:45;3.73;;;1.27;;
10511;SDS011;5304;48.604;2.096;2022-10-16T02:07:36;2.00;;;1.07;;
10511;SDS011;5304;48.604;2.096;2022-10-16T02:10:21;1.43;;;0.90;;
10511;SDS011;5304;48.604;2.096;2022-10-16T02:13:15;1.00;;;0.80;;
10511;SDS011;5304;48.604;2.096;2022-10-16T02:16:08;2.23;;;0.90;;
10511;SDS011;5304;48.604;2.096;2022-10-16T02:18:54;2.87;;;1.30;;
10511;SDS011;5304;48.604;2.096;2022-10-16T02:22:00;3.17;;;0.80;;
10511;SDS011;5304;48.604;2.096;2022-10-16T02:27:56;0.80;;;0.80;;
10511;SDS011;5304;48.604;2.096;2022-10-16T02:30:50;1.07;;;1.07;;
10511;SDS011;5304;48.604;2.096;2022-10-16T02:33:40;2.70;;;1.20;;
10511;SDS011;5304;48.604;2.096;2022-10-16T02:36:27;1.30;;;1.00;;
10511;SDS011;5304;48.604;2.096;2022-10-16T02:39:12;0.93;;;0.90;;
10511;SDS011;5304;48.604;2.096;2022-10-16T02:41:58;2.27;;;0.90;;
10511;SDS011;5304;48.604;2.096;2022-10-16T02:44:42;2.20;;;1.30;;
10511;SDS011;5304;48.604;2.096;2022-10-16T02:47:29;3.70;;;1.23;;
10511;SDS011;5304;48.604;2.096;2022-10-16T02:50:13;3.03;;;1.00;;
10511;SDS011;5304;48.604;2.096;2022-10-16T02:52:58;1.43;;;0.90;;
10511;SDS011;5304;48.604;2.096;2022-10-16T02:55:42;4.67;;;1.20;;
10511;SDS011;5304;48.604;2.096;2022-10-16T02:58:27;1.83;;;1.10;;
10511;SDS011;5304;48.604;2.096;2022-10-16T03:01:11;1.20;;;1.10;;
10511;SDS011;5304;48.604;2.096;2022-10-16T03:03:58;1.00;;;0.90;;
10511;SDS011;5304;48.604;2.096;2022-10-16T03:06:42;2.70;;;0.90;;
10511;SDS011;5304;48.604;2.096;2022-10-16T03:09:26;1.00;;;1.00;;
10511;SDS011;5304;48.604;2.096;2022-10-16T03:12:11;3.30;;;1.27;;
10511;SDS011;5304;48.604;2.096;2022-10-16T03:14:55;2.43;;;1.20;;
10511;SDS011;5304;48.604;2.096;2022-10-16T03:17:40;3.57;;;1.10;;
10511;SDS011;5304;48.604;2.096;2022-10-16T03:20:25;1.87;;;1.37;;
10511;SDS011;5304;48.604;2.096;2022-10-16T03:23:10;4.10;;;1.20;;
10511;SDS011;5304;48.604;2.096;2022-10-16T03:25:54;2.87;;;1.13;;
10511;SDS011;5304;48.604;2.096;2022-10-16T03:28:39;1.20;;;1.00;;
10511;SDS011;5304;48.604;2.096;2022-10-16T03:31:23;2.37;;;0.80;;
10511;SDS011;5304;48.604;2.096;2022-10-16T03:34:08;1.80;;;1.03;;
10511;SDS011;5304;48.604;2.096;2022-10-16T03:36:52;2.13;;;1.13;;
10511;SDS011;5304;48.604;2.096;2022-10-16T03:39:37;1.93;;;1.20;;
10511;SDS011;5304;48.604;2.096;2022-10-16T03:42:21;1.53;;;1.10;;
10511;SDS011;5304;48.604;2.096;2022-10-16T03:45:06;1.30;;;0.90;;
10511;SDS011;5304;48.604;2.096;2022-10-16T03:47:51;1.17;;;1.10;;
10511;SDS011;5304;48.604;2.096;2022-10-16T03:50:35;1.00;;;0.90;;
10511;SDS011;5304;48.604;2.096;2022-10-16T03:53:20;2.77;;;0.97;;
10511;SDS011;5304;48.604;2.096;2022-10-16T03:56:05;2.53;;;1.20;;
10511;SDS011;5304;48.604;2.096;2022-10-16T03:58:49;1.00;;;0.90;;
10511;SDS011;5304;48.604;2.096;2022-10-16T04:01:34;1.10;;;1.10;;
10511;SDS011;5304;48.604;2.096;2022-10-16T04:04:18;2.53;;;1.10;;
10511;SDS011;5304;48.604;2.096;2022-10-16T04:07:02;1.27;;;1.17;;
10511;SDS011;5304;48.604;2.096;2022-10-16T04:09:47;1.40;;;1.10;;
10511;SDS011;5304;48.604;2.096;2022-10-16T04:12:31;1.90;;;1.17;;
10511;SDS011;5304;48.604;2.096;2022-10-16T04:15:16;2.40;;;1.33;;
10511;SDS011;5304;48.604;2.096;2022-10-16T04:18:00;5.30;;;1.30;;
10511;SDS011;5304;48.604;2.096;2022-10-16T04:20:44;1.77;;;1.03;;
10511;SDS011;5304;48.604;2.096;2022-10-16T04:23:31;3.37;;;0.90;;
10511;SDS011;5304;48.604;2.096;2022-10-16T04:26:16;4.33;;;1.10;;
10511;SDS011;5304;48.604;2.096;2022-10-16T04:29:01;3.67;;;1.33;;
10511;SDS011;5304;48.604;2.096;2022-10-16T04:31:46;2.17;;;1.00;;
10511;SDS011;5304;48.604;2.096;2022-10-16T04:34:30;1.43;;;1.00;;
10511;SDS011;5304;48.604;2.096;2022-10-16T04:37:15;1.30;;;0.93;;
10511;SDS011;5304;48.604;2.096;2022-10-16T04:39:59;1.60;;;0.83;;
10511;SDS011;5304;48.604;2.096;2022-10-16T04:42:44;2.50;;;1.20;;
10511;SDS011;5304;48.604;2.096;2022-10-16T04:45:28;4.00;;;1.00;;
10511;SDS011;5304;48.604;2.096;2022-10-16T04:48:13;2.40;;;1.20;;
10511;SDS011;5304;48.604;2.096;2022-10-16T04:50:58;3.43;;;1.30;;
10511;SDS011;5304;48.604;2.096;2022-10-16T04:53:42;2.60;;;1.20;;
10511;SDS011;5304;48.604;2.096;2022-10-16T04:56:26;1.77;;;1.20;;
10511;SDS011;5304;48.604;2.096;2022-10-16T04:59:11;2.70;;;1.30;;
10511;SDS011;5304;48.604;2.096;2022-10-16T05:01:56;1.47;;;0.80;;
10511;SDS011;5304;48.604;2.096;2022-10-16T05:04:40;1.83;;;1.30;;
10511;SDS011;5304;48.604;2.096;2022-10-16T05:07:25;2.50;;;1.40;;
10511;SDS011;5304;48.604;2.096;2022-10-16T05:10:09;2.90;;;1.10;;
10511;SDS011;5304;48.604;2.096;2022-10-16T05:12:53;3.33;;;1.50;;
10511;SDS011;5304;48.604;2.096;2022-10-16T05:15:38;1.53;;;1.20;;
10511;SDS011;5304;48.604;2.096;2022-10-16T05:18:22;3.33;;;1.30;;
10511;SDS011;5304;48.604;2.096;2022-10-16T05:21:07;3.50;;;1.27;;
10511;SDS011;5304;48.604;2.096;2022-10-16T05:23:52;1.43;;;1.33;;
10511;SDS011;5304;48.604;2.096;2022-10-16T05:26:38;2.90;;;1.20;;
10511;SDS011;5304;48.604;2.096;2022-10-16T05:29:22;7.20;;;1.53;;
10511;SDS011;5304;48.604;2.096;2022-10-16T05:32:07;1.30;;;1.10;;
10511;SDS011;5304;48.604;2.096;2022-10-16T05:34:52;1.40;;;1.30;;
10511;SDS011;5304;48.604;2.096;2022-10-16T05:37:36;1.27;;;1.13;;
10511;SDS011;5304;48.604;2.096;2022-10-16T05:40:21;4.37;;;1.40;;
10511;SDS011;5304;48.604;2.096;2022-10-16T05:43:05;2.17;;;1.03;;
10511;SDS011;5304;48.604;2.096;2022-10-16T05:46:03;3.43;;;1.53;;
10511;SDS011;5304;48.604;2.096;2022-10-16T05:48:51;2.10;;;1.20;;
10511;SDS011;5304;48.604;2.096;2022-10-16T05:51:36;3.17;;;1.50;;
10511;SDS011;5304;48.604;2.096;2022-10-16T05:54:21;1.27;;;1.17;;
10511;SDS011;5304;48.604;2.096;2022-10-16T05:57:05;1.70;;;1.60;;
10511;SDS011;5304;48.604;2.096;2022-10-16T05:59:50;6.40;;;1.43;;
10511;SDS011;5304;48.604;2.096;2022-10-16T06:02:34;5.23;;;1.60;;
10511;SDS011;5304;48.604;2.096;2022-10-16T06:05:19;1.53;;;1.43;;
10511;SDS011;5304;48.604;2.096;2022-10-16T06:08:03;1.40;;;1.27;;
10511;SDS011;5304;48.604;2.096;2022-10-16T06:10:48;1.90;;;1.40;;
10511;SDS011;5304;48.604;2.096;2022-10-16T06:13:43;2.97;;;1.20;;
10511;SDS011;5304;48.604;2.096;2022-10-16T06:16:29;4.33;;;1.43;;
10511;SDS011;5304;48.604;2.096;2022-10-16T06:19:14;2.70;;;1.30;;
10511;SDS011;5304;48.604;2.096;2022-10-16T06:21:59;2.00;;;1.47;;
10511;SDS011;5304;48.604;2.096;2022-10-16T06:24:44;1.50;;;1.40;;
10511;SDS011;5304;48.604;2.096;2022-10-16T06:27:31;3.27;;;1.57;;
10511;SDS011;5304;48.604;2.096;2022-10-16T06:30:15;4.27;;;1.40;;
10511;SDS011;5304;48.604;2.096;2022-10-16T06:33:00;3.60;;;1.30;;
10511;SDS011;5304;48.604;2.096;2022-10-16T06:35:44;2.37;;;1.20;;
10511;SDS011;5304;48.604;2.096;2022-10-16T06:38:29;2.40;;;1.43;;
10511;SDS011;5304;48.604;2.096;2022-10-16T06:41:15;3.43;;;1.80;;
10511;SDS011;5304;48.604;2.096;2022-10-16T06:44:01;3.07;;;1.83;;
10511;SDS011;5304;48.604;2.096;2022-10-16T06:46:49;1.70;;;1.60;;
10511;SDS011;5304;48.604;2.096;2022-10-16T06:49:33;3.20;;;1.70;;
10511;SDS011;5304;48.604;2.096;2022-10-16T06:52:18;4.57;;;2.00;;
10511;SDS011;5304;48.604;2.096;2022-10-16T06:55:02;7.63;;;2.03;;
10511;SDS011;5304;48.604;2.096;2022-10-16T06:57:47;4.27;;;1.80;;
10511;SDS011;5304;48.604;2.096;2022-10-16T07:00:32;3.03;;;1.83;;
10511;SDS011;5304;48.604;2.096;2022-10-16T07:03:16;4.53;;;2.00;;
10511;SDS011;5304;48.604;2.096;2022-10-16T07:06:01;5.40;;;2.00;;
10511;SDS011;5304;48.604;2.096;2022-10-16T07:08:47;5.67;;;1.97;;
10511;SDS011;5304;48.604;2.096;2022-10-16T07:11:33;3.63;;;1.87;;
10511;SDS011;5304;48.604;2.096;2022-10-16T07:14:18;1.87;;;1.77;;
10511;SDS011;5304;48.604;2.096;2022-10-16T07:17:04;3.90;;;1.80;;
10511;SDS011;5304;48.604;2.096;2022-10-16T07:19:48;1.90;;;1.50;;
10511;SDS011;5304;48.604;2.096;2022-10-16T07:22:32;3.47;;;2.00;;
10511;SDS011;5304;48.604;2.096;2022-10-16T07:25:17;2.03;;;1.83;;
10511;SDS011;5304;48.604;2.096;2022-10-16T07:28:01;3.23;;;1.70;;
10511;SDS011;5304;48.604;2.096;2022-10-16T07:30:46;4.13;;;1.90;;
10511;SDS011;5304;48.604;2.096;2022-10-16T07:33:34;5.53;;;1.97;;
10511;SDS011;5304;48.604;2.096;2022-10-16T07:36:19;2.53;;;2.10;;
10511;SDS011;5304;48.604;2.096;2022-10-16T07:39:05;3.43;;;2.03;;
10511;SDS011;5304;48.604;2.096;2022-10-16T07:41:49;4.50;;;2.43;;
10511;SDS011;5304;48.604;2.096;2022-10-16T07:44:34;3.97;;;2.60;;
10511;SDS011;5304;48.604;2.096;2022-10-16T07:47:18;2.57;;;2.13;;
10511;SDS011;5304;48.604;2.096;2022-10-16T07:50:04;3.87;;;2.73;;
10511;SDS011;5304;48.604;2.096;2022-10-16T07:52:49;2.40;;;2.20;;
10511;SDS011;5304;48.604;2.096;2022-10-16T07:55:34;3.53;;;1.67;;
10511;SDS011;5304;48.604;2.096;2022-10-16T07:58:18;2.40;;;2.00;;
10511;SDS011;5304;48.604;2.096;2022-10-16T08:01:07;2.37;;;1.50;;
10511;SDS011;5304;48.604;2.096;2022-10-16T08:03:53;2.53;;;1.60;;
10511;SDS011;5304;48.604;2.096;2022-10-16T08:06:38;1.77;;;1.30;;
10511;SDS011;5304;48.604;2.096;2022-10-16T08:09:23;1.47;;;1.13;;
10511;SDS011;5304;48.604;2.096;2022-10-16T08:12:08;2.17;;;1.40;;
10511;SDS011;5304;48.604;2.096;2022-10-16T08:14:54;1.20;;;1.10;;
10511;SDS011;5304;48.604;2.096;2022-10-16T08:17:39;1.33;;;1.23;;
10511;SDS011;5304;48.604;2.096;2022-10-16T08:20:23;1.17;;;1.07;;
10511;SDS011;5304;48.604;2.096;2022-10-16T08:23:09;2.70;;;1.10;;
10511;SDS011;5304;48.604;2.096;2022-10-16T08:25:56;1.60;;;1.20;;
10511;SDS011;5304;48.604;2.096;2022-10-16T08:28:50;1.20;;;1.10;;
10511;SDS011;5304;48.604;2.096;2022-10-16T08:31:37;1.30;;;1.20;;
10511;SDS011;5304;48.604;2.096;2022-10-16T08:34:22;2.07;;;1.50;;
10511;SDS011;5304;48.604;2.096;2022-10-16T08:37:06;1.60;;;1.37;;
10511;SDS011;5304;48.604;2.096;2022-10-16T08:39:54;1.77;;;1.43;;
10511;SDS011;5304;48.604;2.096;2022-10-16T08:45:53;1.40;;;1.30;;
10511;SDS011;5304;48.604;2.096;2022-10-16T08:48:54;1.37;;;1.10;;
10511;SDS011;5304;48.604;2.096;2022-10-16T08:51:40;2.90;;;1.50;;
10511;SDS011;5304;48.604;2.096;2022-10-16T08:54:31;2.80;;;1.30;;
10511;SDS011;5304;48.604;2.096;2022-10-16T08:57:24;0.85;;;0.85;;
10511;SDS011;5304;48.604;2.096;2022-10-16T09:00:15;2.15;;;1.10;;
10511;SDS011;5304;48.604;2.096;2022-10-16T09:15:17;1.98;;;1.00;;
10511;SDS011;5304;48.604;2.096;2022-10-16T09:21:19;1.60;;;0.98;;
10511;SDS011;5304;48.604;2.096;2022-10-16T09:24:15;1.73;;;0.90;;
10511;SDS011;5304;48.604;2.096;2022-10-16T09:27:04;1.20;;;0.90;;
10511;SDS011;5304;48.604;2.096;2022-10-16T09:29:51;3.20;;;0.85;;
10511;SDS011;5304;48.604;2.096;2022-10-16T09:32:35;1.10;;;1.00;;
10511;SDS011;5304;48.604;2.096;2022-10-16T09:35:25;1.08;;;1.00;;
10511;SDS011;5304;48.604;2.096;2022-10-16T09:38:38;1.30;;;0.80;;
10511;SDS011;5304;48.604;2.096;2022-10-16T09:41:22;1.55;;;0.90;;
10511;SDS011;5304;48.604;2.096;2022-10-16T09:47:18;2.75;;;0.90;;
10511;SDS011;5304;48.604;2.096;2022-10-16T09:50:19;2.42;;;1.05;;
10511;SDS011;5304;48.604;2.096;2022-10-16T09:53:13;1.88;;;0.90;;
10511;SDS011;5304;48.604;2.096;2022-10-16T09:56:01;0.93;;;0.93;;
10511;SDS011;5304;48.604;2.096;2022-10-16T09:58:51;1.13;;;0.80;;
10511;SDS011;5304;48.604;2.096;2022-10-16T10:01:38;1.10;;;0.90;;
10511;SDS011;5304;48.604;2.096;2022-10-16T10:04:26;1.13;;;0.90;;
10511;SDS011;5304;48.604;2.096;2022-10-16T10:07:28;1.05;;;0.90;;
10511;SDS011;5304;48.604;2.096;2022-10-16T10:10:22;2.00;;;0.90;;
10511;SDS011;5304;48.604;2.096;2022-10-16T10:13:20;0.70;;;0.70;;
10511;SDS011;5304;48.604;2.096;2022-10-16T10:16:07;3.65;;;0.80;;
10511;SDS011;5304;48.604;2.096;2022-10-16T10:18:59;1.00;;;1.00;;
10511;SDS011;5304;48.604;2.096;2022-10-16T10:21:43;0.82;;;0.82;;
10511;SDS011;5304;48.604;2.096;2022-10-16T10:24:28;1.77;;;0.90;;
10511;SDS011;5304;48.604;2.096;2022-10-16T10:27:14;1.90;;;1.00;;
10511;SDS011;5304;48.604;2.096;2022-10-16T10:30:10;0.80;;;0.80;;
10511;SDS011;5304;48.604;2.096;2022-10-16T10:36:22;3.83;;;1.27;;
10511;SDS011;5304;48.604;2.096;2022-10-16T10:43:04;1.10;;;1.00;;
10511;SDS011;5304;48.604;2.096;2022-10-16T10:46:03;1.90;;;1.03;;
10511;SDS011;5304;48.604;2.096;2022-10-16T10:54:35;2.00;;;1.00;;
10511;SDS011;5304;48.604;2.096;2022-10-16T11:00:28;2.00;;;0.80;;
10511;SDS011;5304;48.604;2.096;2022-10-16T11:09:39;0.80;;;0.80;;
10511;SDS011;5304;48.604;2.096;2022-10-16T11:12:31;0.70;;;0.70;;
10511;SDS011;5304;48.604;2.096;2022-10-16T11:15:25;0.93;;;0.80;;
10511;SDS011;5304;48.604;2.096;2022-10-16T11:18:38;0.82;;;0.82;;
10511;SDS011;5304;48.604;2.096;2022-10-16T11:21:25;0.70;;;0.70;;
10511;SDS011;5304;48.604;2.096;2022-10-16T11:24:21;0.70;;;0.70;;
10511;SDS011;5304;48.604;2.096;2022-10-16T11:27:17;0.80;;;0.80;;
10511;SDS011;5304;48.604;2.096;2022-10-16T11:30:27;0.80;;;0.80;;
10511;SDS011;5304;48.604;2.096;2022-10-16T11:36:16;1.45;;;0.80;;
10511;SDS011;5304;48.604;2.096;2022-10-16T11:42:09;0.77;;;0.77;;
10511;SDS011;5304;48.604;2.096;2022-10-16T11:47:58;0.88;;;0.82;;
10511;SDS011;5304;48.604;2.096;2022-10-16T11:50:54;0.95;;;0.80;;
10511;SDS011;5304;48.604;2.096;2022-10-16T11:53:46;1.02;;;0.95;;
10511;SDS011;5304;48.604;2.096;2022-10-16T11:57:00;1.27;;;0.88;;
10511;SDS011;5304;48.604;2.096;2022-10-16T11:59:56;2.00;;;1.10;;
10511;SDS011;5304;48.604;2.096;2022-10-16T12:09:25;3.40;;;1.42;;
10511;SDS011;5304;48.604;2.096;2022-10-16T12:12:28;1.50;;;1.30;;
10511;SDS011;5304;48.604;2.096;2022-10-16T12:18:21;1.55;;;1.40;;
10511;SDS011;5304;48.604;2.096;2022-10-16T12:21:07;2.88;;;1.65;;
10511;SDS011;5304;48.604;2.096;2022-10-16T12:23:56;2.00;;;1.80;;
10511;SDS011;5304;48.604;2.096;2022-10-16T12:26:42;1.88;;;1.70;;
10511;SDS011;5304;48.604;2.096;2022-10-16T12:29:39;1.98;;;1.60;;
10511;SDS011;5304;48.604;2.096;2022-10-16T12:32:30;2.90;;;2.00;;
10511;SDS011;5304;48.604;2.096;2022-10-16T12:35:25;2.22;;;2.03;;
10511;SDS011;5304;48.604;2.096;2022-10-16T12:38:18;2.47;;;1.90;;
10511;SDS011;5304;48.604;2.096;2022-10-16T12:41:06;2.38;;;2.17;;
10511;SDS011;5304;48.604;2.096;2022-10-16T12:43:52;2.20;;;2.03;;
10511;SDS011;5304;48.604;2.096;2022-10-16T12:46:37;2.58;;;2.10;;
10511;SDS011;5304;48.604;2.096;2022-10-16T12:49:37;2.53;;;2.10;;
10511;SDS011;5304;48.604;2.096;2022-10-16T12:52:26;1.92;;;1.83;;
10511;SDS011;5304;48.604;2.096;2022-10-16T12:55:19;2.25;;;1.83;;
10511;SDS011;5304;48.604;2.096;2022-10-16T12:58:08;2.15;;;1.63;;
10511;SDS011;5304;48.604;2.096;2022-10-16T13:01:21;3.35;;;1.98;;
10511;SDS011;5304;48.604;2.096;2022-10-16T13:09:49;1.70;;;1.60;;
10511;SDS011;5304;48.604;2.096;2022-10-16T13:19:13;2.72;;;1.98;;
10511;SDS011;5304;48.604;2.096;2022-10-16T13:22:14;2.67;;;1.75;;
10511;SDS011;5304;48.604;2.096;2022-10-16T13:28:07;2.85;;;1.90;;
10511;SDS011;5304;48.604;2.096;2022-10-16T13:30:54;2.45;;;1.73;;
10511;SDS011;5304;48.604;2.096;2022-10-16T13:33:42;3.47;;;1.70;;
10511;SDS011;5304;48.604;2.096;2022-10-16T13:36:35;2.20;;;2.00;;
10511;SDS011;5304;48.604;2.096;2022-10-16T13:39:36;1.95;;;1.80;;
10511;SDS011;5304;48.604;2.096;2022-10-16T13:42:23;2.20;;;2.00;;
10511;SDS011;5304;48.604;2.096;2022-10-16T13:45:17;3.47;;;1.80;;
10511;SDS011;5304;48.604;2.096;2022-10-16T13:48:06;3.63;;;1.98;;
10511;SDS011;5304;48.604;2.096;2022-10-16T13:51:30;1.83;;;1.73;;
10511;SDS011;5304;48.604;2.096;2022-10-16T13:54:10;2.90;;;1.90;;
10511;SDS011;5304;48.604;2.096;2022-10-16T13:56:55;3.17;;;1.95;;
10511;SDS011;5304;48.604;2.096;2022-10-16T13:59:40;2.83;;;1.83;;
10511;SDS011;5304;48.604;2.096;2022-10-16T14:02:30;2.30;;;2.10;;
10511;SDS011;5304;48.604;2.096;2022-10-16T14:05:19;3.47;;;2.20;;
10511;SDS011;5304;48.604;2.096;2022-10-16T14:08:03;3.92;;;2.17;;
10511;SDS011;5304;48.604;2.096;2022-10-16T14:10:50;3.88;;;2.58;;
10511;SDS011;5304;48.604;2.096;2022-10-16T14:13:38;2.13;;;1.95;;
10511;SDS011;5304;48.604;2.096;2022-10-16T14:16:28;4.05;;;1.92;;
10511;SDS011;5304;48.604;2.096;2022-10-16T14:19:18;4.43;;;2.15;;
10511;SDS011;5304;48.604;2.096;2022-10-16T14:22:20;2.20;;;1.80;;
10511;SDS011;5304;48.604;2.096;2022-10-16T14:31:17;3.90;;;2.40;;
10511;SDS011;5304;48.604;2.096;2022-10-16T14:34:26;6.22;;;2.50;;
10511;SDS011;5304;48.604;2.096;2022-10-16T14:37:23;4.28;;;2.38;;
10511;SDS011;5304;48.604;2.096;2022-10-16T14:40:13;2.42;;;2.22;;
10511;SDS011;5304;48.604;2.096;2022-10-16T14:42:59;4.55;;;2.22;;
10511;SDS011;5304;48.604;2.096;2022-10-16T14:45:49;2.55;;;2.15;;
10511;SDS011;5304;48.604;2.096;2022-10-16T14:48:39;3.97;;;2.30;;
10511;SDS011;5304;48.604;2.096;2022-10-16T14:51:26;3.45;;;2.60;;
10511;SDS011;5304;48.604;2.096;2022-10-16T14:54:11;2.47;;;2.28;;
10511;SDS011;5304;48.604;2.096;2022-10-16T14:57:00;2.20;;;2.00;;
10511;SDS011;5304;48.604;2.096;2022-10-16T14:59:44;2.47;;;2.28;;
10511;SDS011;5304;48.604;2.096;2022-10-16T15:02:30;3.35;;;2.10;;
10511;SDS011;5304;48.604;2.096;2022-10-16T15:05:21;3.67;;;2.58;;
10511;SDS011;5304;48.604;2.096;2022-10-16T15:08:08;2.28;;;2.08;;
10511;SDS011;5304;48.604;2.096;2022-10-16T15:10:53;3.00;;;2.28;;
10511;SDS011;5304;48.604;2.096;2022-10-16T15:13:38;2.85;;;2.25;;
10511;SDS011;5304;48.604;2.096;2022-10-16T15:16:22;2.92;;;2.10;;
10511;SDS011;5304;48.604;2.096;2022-10-16T15:19:07;3.95;;;2.50;;
10511;SDS011;5304;48.604;2.096;2022-10-16T15:21:51;2.55;;;2.15;;
10511;SDS011;5304;48.604;2.096;2022-10-16T15:24:35;2.45;;;2.25;;
10511;SDS011;5304;48.604;2.096;2022-10-16T15:27:20;3.75;;;2.17;;
10511;SDS011;5304;48.604;2.096;2022-10-16T15:30:04;4.32;;;2.30;;
10511;SDS011;5304;48.604;2.096;2022-10-16T15:32:49;2.30;;;2.10;;
10511;SDS011;5304;48.604;2.096;2022-10-16T15:35:35;3.38;;;2.50;;
10511;SDS011;5304;48.604;2.096;2022-10-16T15:38:20;4.90;;;4.30;;
10511;SDS011;5304;48.604;2.096;2022-10-16T15:41:05;4.85;;;2.60;;
10511;SDS011;5304;48.604;2.096;2022-10-16T15:43:49;2.70;;;2.50;;
10511;SDS011;5304;48.604;2.096;2022-10-16T15:46:34;3.72;;;2.25;;
10511;SDS011;5304;48.604;2.096;2022-10-16T15:49:20;5.20;;;2.65;;
10511;SDS011;5304;48.604;2.096;2022-10-16T15:52:05;2.45;;;2.25;;
10511;SDS011;5304;48.604;2.096;2022-10-16T15:54:49;3.60;;;2.60;;
10511;SDS011;5304;48.604;2.096;2022-10-16T15:57:33;4.22;;;2.70;;
10511;SDS011;5304;48.604;2.096;2022-10-16T16:00:18;6.13;;;2.63;;
10511;SDS011;5304;48.604;2.096;2022-10-16T16:03:09;2.58;;;2.38;;
10511;SDS011;5304;48.604;2.096;2022-10-16T16:05:53;2.28;;;2.00;;
10511;SDS011;5304;48.604;2.096;2022-10-16T16:08:38;3.25;;;2.40;;
10511;SDS011;5304;48.604;2.096;2022-10-16T16:11:23;3.35;;;2.33;;
10511;SDS011;5304;48.604;2.096;2022-10-16T16:14:10;3.72;;;2.75;;
10511;SDS011;5304;48.604;2.096;2022-10-16T16:16:56;2.67;;;2.35;;
10511;SDS011;5304;48.604;2.096;2022-10-16T16:19:41;25.25;;;10.35;;
10511;SDS011;5304;48.604;2.096;2022-10-16T16:22:26;3.92;;;3.53;;
10511;SDS011;5304;48.604;2.096;2022-10-16T16:25:11;3.45;;;3.15;;
10511;SDS011;5304;48.604;2.096;2022-10-16T16:27:56;4.18;;;2.70;;
10511;SDS011;5304;48.604;2.096;2022-10-16T16:30:41;5.03;;;3.00;;
10511;SDS011;5304;48.604;2.096;2022-10-16T16:33:26;4.18;;;2.75;;
10511;SDS011;5304;48.604;2.096;2022-10-16T16:36:10;4.95;;;2.83;;
10511;SDS011;5304;48.604;2.096;2022-10-16T16:38:55;3.15;;;2.85;;
10511;SDS011;5304;48.604;2.096;2022-10-16T16:41:40;3.05;;;2.75;;
10511;SDS011;5304;48.604;2.096;2022-10-16T16:44:25;4.40;;;3.40;;
10511;SDS011;5304;48.604;2.096;2022-10-16T16:47:09;3.83;;;3.50;;
10511;SDS011;5304;48.604;2.096;2022-10-16T16:49:54;4.20;;;3.28;;
10511;SDS011;5304;48.604;2.096;2022-10-16T16:52:39;5.18;;;2.70;;
10511;SDS011;5304;48.604;2.096;2022-10-16T16:55:23;4.00;;;3.22;;
10511;SDS011;5304;48.604;2.096;2022-10-16T16:58:08;4.43;;;2.95;;
10511;SDS011;5304;48.604;2.096;2022-10-16T17:00:53;5.15;;;3.15;;
10511;SDS011;5304;48.604;2.096;2022-10-16T17:03:37;6.57;;;3.00;;
10511;SDS011;5304;48.604;2.096;2022-10-16T17:06:26;3.97;;;3.17;;
10511;SDS011;5304;48.604;2.096;2022-10-16T17:09:13;7.63;;;3.53;;
10511;SDS011;5304;48.604;2.096;2022-10-16T17:11:58;3.47;;;2.90;;
10511;SDS011;5304;48.604;2.096;2022-10-16T17:14:43;4.45;;;2.97;;
10511;SDS011;5304;48.604;2.096;2022-10-16T17:17:27;3.67;;;2.60;;
10511;SDS011;5304;48.604;2.096;2022-10-16T17:20:12;5.10;;;2.83;;
10511;SDS011;5304;48.604;2.096;2022-10-16T17:22:56;7.05;;;3.17;;
10511;SDS011;5304;48.604;2.096;2022-10-16T17:25:41;5.70;;;3.47;;
10511;SDS011;5304;48.604;2.096;2022-10-16T17:28:26;3.40;;;3.10;;
10511;SDS011;5304;48.604;2.096;2022-10-16T17:31:15;4.82;;;2.95;;
10511;SDS011;5304;48.604;2.096;2022-10-16T17:34:01;4.57;;;3.40;;
10511;SDS011;5304;48.604;2.096;2022-10-16T17:36:48;4.05;;;3.38;;
10511;SDS011;5304;48.604;2.096;2022-10-16T17:39:34;6.93;;;3.42;;
10511;SDS011;5304;48.604;2.096;2022-10-16T17:42:18;6.70;;;3.22;;
10511;SDS011;5304;48.604;2.096;2022-10-16T17:45:03;4.65;;;3.50;;
10511;SDS011;5304;48.604;2.096;2022-10-16T17:47:48;4.38;;;3.60;;
10511;SDS011;5304;48.604;2.096;2022-10-16T17:50:32;4.40;;;3.20;;
10511;SDS011;5304;48.604;2.096;2022-10-16T17:53:17;7.20;;;3.40;;
10511;SDS011;5304;48.604;2.096;2022-10-16T17:58:50;4.50;;;3.17;;
10511;SDS011;5304;48.604;2.096;2022-10-16T18:01:37;4.38;;;3.47;;
10511;SDS011;5304;48.604;2.096;2022-10-16T18:04:23;4.77;;;3.37;;
10511;SDS011;5304;48.604;2.096;2022-10-16T18:07:08;4.50;;;3.17;;
10511;SDS011;5304;48.604;2.096;2022-10-16T18:09:53;5.55;;;3.80;;
10511;SDS011;5304;48.604;2.096;2022-10-16T18:12:37;4.73;;;3.63;;
10511;SDS011;5304;48.604;2.096;2022-10-16T18:15:22;5.75;;;4.03;;
10511;SDS011;5304;48.604;2.096;2022-10-16T18:18:06;4.05;;;3.47;;
10511;SDS011;5304;48.604;2.096;2022-10-16T18:20:58;4.53;;;4.03;;
10511;SDS011;5304;48.604;2.096;2022-10-16T18:23:43;4.60;;;4.20;;
10511;SDS011;5304;48.604;2.096;2022-10-16T18:26:28;6.07;;;4.17;;
10511;SDS011;5304;48.604;2.096;2022-10-16T18:29:13;5.50;;;4.00;;
10511;SDS011;5304;48.604;2.096;2022-10-16T18:31:57;5.97;;;4.10;;
10511;SDS011;5304;48.604;2.096;2022-10-16T18:34:42;7.60;;;4.30;;
10511;SDS011;5304;48.604;2.096;2022-10-16T18:37:26;5.47;;;4.60;;
10511;SDS011;5304;48.604;2.096;2022-10-16T18:40:11;5.30;;;4.17;;
10511;SDS011;5304;48.604;2.096;2022-10-16T18:42:55;5.65;;;4.38;;
10511;SDS011;5304;48.604;2.096;2022-10-16T18:45:39;5.17;;;4.10;;
10511;SDS011;5304;48.604;2.096;2022-10-16T18:48:24;4.90;;;4.23;;
10511;SDS011;5304;48.604;2.096;2022-10-16T18:51:29;4.87;;;4.30;;